Time;durP1;ratioP1;P1;durP2;ratioP2;P2;SDS_P1;SDS_P2;PMS_P1;PMS_P2;Temp;Humidity;BMP_temperature;BMP_pressure;BME280_temperature;BME280_humidity;BME280_pressure;Samples;Min_cycle;Max_cycle;Signal;HPM_P1;HPM_P2
2021/09/06 00:02:07;;;;;;;27.33;11.68;;;;;;;;;;4983923;28;20033;-74
2021/09/06 00:04:33;;;;;;;21.65;11.25;;;;;;;;;;4971125;28;20027;-75
2021/09/06 00:06:59;;;;;;;21.27;10.60;;;;;;;;;;4971798;28;20065;-74
2021/09/06 00:09:25;;;;;;;24.30;12.25;;;;;;;;;;4971734;28;20086;-74
2021/09/06 00:11:50;;;;;;;23.70;10.05;;;;;;;;;;4970442;28;20114;-75
2021/09/06 00:14:17;;;;;;;23.83;11.23;;;;;;;;;;4971725;28;20038;-75
2021/09/06 00:16:42;;;;;;;21.25;11.15;;;;;;;;;;4954834;28;20467;-75
2021/09/06 00:19:08;;;;;;;25.35;11.50;;;;;;;;;;4954297;28;20031;-74
2021/09/06 00:21:33;;;;;;;25.33;11.18;;;;;;;;;;4971639;28;20059;-75
2021/09/06 00:23:59;;;;;;;23.08;11.35;;;;;;;;;;4971946;28;20420;-74
2021/09/06 00:26:25;;;;;;;23.90;11.52;;;;;;;;;;4954001;28;20602;-74
2021/09/06 00:28:50;;;;;;;24.88;11.65;;;;;;;;;;4971812;28;20127;-75
2021/09/06 00:31:16;;;;;;;25.10;11.32;;;;;;;;;;4971423;28;20447;-75
2021/09/06 00:33:42;;;;;;;23.48;11.57;;;;;;;;;;4971913;28;20483;-76
2021/09/06 00:36:09;;;;;;;21.92;11.50;;;;;;;;;;4971383;28;20550;-74
2021/09/06 00:38:34;;;;;;;27.27;12.68;;;;;;;;;;4971546;28;20535;-74
2021/09/06 00:41:00;;;;;;;23.15;11.27;;;;;;;;;;4971791;28;20089;-75
2021/09/06 00:43:25;;;;;;;28.08;10.30;;;;;;;;;;4953741;28;20182;-73
2021/09/06 00:45:51;;;;;;;23.13;11.85;;;;;;;;;;4971093;28;20054;-75
2021/09/06 00:48:18;;;;;;;29.70;11.50;;;;;;;;;;4953798;28;20697;-74
2021/09/06 00:50:45;;;;;;;32.00;12.70;;;;;;;;;;4953834;28;20026;-75
2021/09/06 00:53:13;;;;;;;26.98;11.80;;;;;;;;;;4971402;28;20375;-72
2021/09/06 00:55:38;;;;;;;24.20;11.10;;;;;;;;;;4971067;28;20058;-73
2021/09/06 00:58:04;;;;;;;27.48;11.48;;;;;;;;;;4970966;28;20078;-75
2021/09/06 01:00:30;;;;;;;24.33;11.13;;;;;;;;;;4970785;28;20032;-73
2021/09/06 01:02:56;;;;;;;27.02;11.13;;;;;;;;;;4953545;28;20390;-73
2021/09/06 01:05:21;;;;;;;24.45;11.55;;;;;;;;;;4969604;28;20031;-73
2021/09/06 01:07:47;;;;;;;24.02;11.55;;;;;;;;;;4970861;28;20019;-73
2021/09/06 01:10:14;;;;;;;25.88;11.70;;;;;;;;;;4970722;28;20026;-72
2021/09/06 01:12:40;;;;;;;28.02;11.35;;;;;;;;;;4953486;28;20029;-75
2021/09/06 01:15:08;;;;;;;25.48;11.00;;;;;;;;;;4970568;28;20046;-74
2021/09/06 01:17:34;;;;;;;23.15;11.82;;;;;;;;;;4970708;28;20403;-73
2021/09/06 01:19:59;;;;;;;24.75;11.05;;;;;;;;;;4971190;28;20034;-73
2021/09/06 01:22:25;;;;;;;23.20;10.63;;;;;;;;;;4953416;28;20038;-74
2021/09/06 01:24:51;;;;;;;26.65;10.80;;;;;;;;;;4971010;28;20305;-73
2021/09/06 01:27:16;;;;;;;23.63;10.68;;;;;;;;;;4970463;28;20039;-72
2021/09/06 01:29:43;;;;;;;27.27;11.77;;;;;;;;;;4952957;28;20553;-74
2021/09/06 01:32:09;;;;;;;23.58;11.35;;;;;;;;;;4971002;28;20019;-74
2021/09/06 01:34:35;;;;;;;20.85;11.30;;;;;;;;;;4970631;28;20171;-73
2021/09/06 01:37:01;;;;;;;21.15;10.32;;;;;;;;;;4953112;28;20026;-74
2021/09/06 01:39:27;;;;;;;25.25;11.15;;;;;;;;;;4970273;28;20023;-73
2021/09/06 01:41:53;;;;;;;22.35;11.10;;;;;;;;;;4953317;28;20502;-74
2021/09/06 01:44:18;;;;;;;26.20;11.25;;;;;;;;;;4970376;28;20037;-74
2021/09/06 01:46:44;;;;;;;25.08;11.63;;;;;;;;;;4970205;28;20038;-74
2021/09/06 01:49:09;;;;;;;27.58;11.65;;;;;;;;;;4970347;28;20383;-74
2021/09/06 01:51:35;;;;;;;21.50;10.10;;;;;;;;;;4970207;28;20435;-73
2021/09/06 01:54:01;;;;;;;24.50;10.27;;;;;;;;;;4970208;28;20070;-74
2021/09/06 01:56:26;;;;;;;21.80;10.18;;;;;;;;;;4970298;28;20034;-75
2021/09/06 01:58:52;;;;;;;24.83;10.88;;;;;;;;;;4970248;28;20030;-74
2021/09/06 02:01:18;;;;;;;22.55;10.35;;;;;;;;;;4952557;28;20030;-74
2021/09/06 02:03:43;;;;;;;23.27;9.80;;;;;;;;;;4970264;28;20387;-74
2021/09/06 02:06:09;;;;;;;24.77;11.27;;;;;;;;;;4970354;28;20110;-74
2021/09/06 02:08:35;;;;;;;22.80;9.50;;;;;;;;;;4970235;28;20387;-70
2021/09/06 02:11:01;;;;;;;23.17;10.80;;;;;;;;;;4953253;28;20030;-71
2021/09/06 02:13:27;;;;;;;27.88;10.40;;;;;;;;;;4953086;28;20619;-71
2021/09/06 02:15:52;;;;;;;23.10;9.70;;;;;;;;;;4952874;28;20110;-72
2021/09/06 02:18:18;;;;;;;24.75;10.90;;;;;;;;;;4968796;28;20109;-73
2021/09/06 02:20:43;;;;;;;23.42;9.60;;;;;;;;;;4970620;28;20495;-75
2021/09/06 02:23:09;;;;;;;22.15;10.50;;;;;;;;;;4970313;28;20491;-72
2021/09/06 02:25:35;;;;;;;20.42;9.10;;;;;;;;;;4970372;28;20037;-71
2021/09/06 02:28:02;;;;;;;24.00;10.80;;;;;;;;;;4972895;28;20043;-71
2021/09/06 02:30:28;;;;;;;21.98;11.05;;;;;;;;;;4973514;28;20049;-73
2021/09/06 02:32:53;;;;;;;20.40;8.98;;;;;;;;;;4956548;28;20022;-71
2021/09/06 02:35:19;;;;;;;21.00;9.77;;;;;;;;;;4956241;28;20066;-71
2021/09/06 02:37:45;;;;;;;21.92;10.32;;;;;;;;;;4973826;28;20023;-71
2021/09/06 02:40:12;;;;;;;24.17;11.00;;;;;;;;;;4972579;28;20033;-70
2021/09/06 02:42:37;;;;;;;23.02;10.32;;;;;;;;;;4973481;28;20030;-71
2021/09/06 02:45:03;;;;;;;28.52;10.50;;;;;;;;;;4973403;28;20495;-71
2021/09/06 02:47:30;;;;;;;27.65;10.55;;;;;;;;;;4955619;28;20039;-72
2021/09/06 02:49:57;;;;;;;25.65;10.13;;;;;;;;;;4973855;28;20026;-72
2021/09/06 02:52:23;;;;;;;20.40;9.55;;;;;;;;;;4955876;28;20033;-72
2021/09/06 02:54:49;;;;;;;19.15;10.18;;;;;;;;;;4973712;28;20030;-73
2021/09/06 02:57:14;;;;;;;22.95;9.98;;;;;;;;;;4973299;28;20037;-72
2021/09/06 02:59:40;;;;;;;23.75;10.15;;;;;;;;;;4955860;28;20138;-72
2021/09/06 03:02:05;;;;;;;22.92;9.93;;;;;;;;;;4976834;28;20117;-72
2021/09/06 03:04:31;;;;;;;17.52;9.50;;;;;;;;;;4988012;28;20037;-72
2021/09/06 03:06:56;;;;;;;21.70;9.95;;;;;;;;;;4974589;28;20080;-73
2021/09/06 03:09:22;;;;;;;22.98;10.10;;;;;;;;;;4992244;28;20030;-71
2021/09/06 03:11:47;;;;;;;28.02;10.77;;;;;;;;;;4992420;28;20105;-70
2021/09/06 03:14:13;;;;;;;24.30;10.68;;;;;;;;;;4991098;28;20026;-71
2021/09/06 03:16:38;;;;;;;31.45;10.40;;;;;;;;;;4992123;28;20030;-71
2021/09/06 03:19:04;;;;;;;29.38;10.32;;;;;;;;;;4974984;28;20045;-70
2021/09/06 03:21:29;;;;;;;26.63;10.90;;;;;;;;;;4992310;28;20026;-70
2021/09/06 03:23:55;;;;;;;23.88;10.05;;;;;;;;;;4991956;28;20117;-72
2021/09/06 03:26:21;;;;;;;26.98;10.25;;;;;;;;;;4992148;28;20026;-71
2021/09/06 03:28:46;;;;;;;23.60;11.20;;;;;;;;;;4974254;28;20046;-71
2021/09/06 03:31:13;;;;;;;28.95;11.15;;;;;;;;;;4977069;28;20054;-72
2021/09/06 03:33:39;;;;;;;36.57;11.60;;;;;;;;;;4972693;28;20039;-71
2021/09/06 03:36:05;;;;;;;20.70;10.80;;;;;;;;;;4955191;28;20431;-71
2021/09/06 03:38:31;;;;;;;21.95;10.98;;;;;;;;;;4972529;28;20383;-71
2021/09/06 03:40:56;;;;;;;19.95;8.95;;;;;;;;;;4972778;28;20086;-72
2021/09/06 03:43:22;;;;;;;42.80;10.95;;;;;;;;;;4972223;28;20039;-72
2021/09/06 03:45:47;;;;;;;29.10;11.15;;;;;;;;;;4958901;28;20030;-74
2021/09/06 03:48:13;;;;;;;20.60;9.52;;;;;;;;;;4975406;28;20034;-75
2021/09/06 03:50:38;;;;;;;28.48;11.80;;;;;;;;;;4955878;28;20557;-75
2021/09/06 03:53:04;;;;;;;22.52;10.43;;;;;;;;;;4972341;28;20062;-75
2021/09/06 03:55:29;;;;;;;25.13;10.63;;;;;;;;;;4954713;28;20466;-75
2021/09/06 03:57:55;;;;;;;19.65;9.65;;;;;;;;;;4972140;28;20089;-76
2021/09/06 04:00:21;;;;;;;21.20;10.07;;;;;;;;;;4972101;28;20076;-74
2021/09/06 04:02:46;;;;;;;22.05;9.57;;;;;;;;;;4971748;28;20039;-74
2021/09/06 04:05:12;;;;;;;22.07;10.07;;;;;;;;;;4972150;28;20022;-74
2021/09/06 04:07:37;;;;;;;26.23;11.63;;;;;;;;;;4954510;28;20022;-73
2021/09/06 04:10:03;;;;;;;20.77;10.23;;;;;;;;;;4972036;28;20030;-74
2021/09/06 04:12:29;;;;;;;19.40;9.07;;;;;;;;;;4954118;28;20035;-75
2021/09/06 04:14:54;;;;;;;20.60;9.47;;;;;;;;;;4970401;28;20379;-74
2021/09/06 04:17:20;;;;;;;23.10;10.95;;;;;;;;;;4954040;28;20097;-75
2021/09/06 04:19:45;;;;;;;18.52;9.60;;;;;;;;;;4954103;28;20030;-75
2021/09/06 04:22:11;;;;;;;30.80;13.77;;;;;;;;;;4971514;28;20038;-75
2021/09/06 04:24:37;;;;;;;23.07;9.23;;;;;;;;;;4971271;28;20387;-73
2021/09/06 04:27:02;;;;;;;23.47;9.50;;;;;;;;;;4971589;28;20043;-76
2021/09/06 04:29:28;;;;;;;27.90;11.13;;;;;;;;;;4971213;28;20047;-75
2021/09/06 04:31:54;;;;;;;19.95;9.65;;;;;;;;;;4971496;28;20034;-74
2021/09/06 04:34:19;;;;;;;17.27;9.13;;;;;;;;;;4971571;28;20065;-73
2021/09/06 04:36:45;;;;;;;24.60;9.73;;;;;;;;;;4971202;28;20027;-75
2021/09/06 04:39:10;;;;;;;25.07;9.90;;;;;;;;;;4971705;28;20031;-76
2021/09/06 04:41:36;;;;;;;21.90;9.97;;;;;;;;;;4953707;28;20050;-74
2021/09/06 04:44:01;;;;;;;19.87;9.43;;;;;;;;;;4954048;28;20035;-75
2021/09/06 04:46:27;;;;;;;22.73;10.10;;;;;;;;;;4971183;28;20035;-74
2021/09/06 04:48:52;;;;;;;23.67;10.30;;;;;;;;;;4954489;28;20079;-74
2021/09/06 04:51:18;;;;;;;30.83;10.70;;;;;;;;;;4972678;28;20499;-74
2021/09/06 04:53:46;;;;;;;31.07;11.10;;;;;;;;;;4972580;28;20022;-74
2021/09/06 04:56:13;;;;;;;21.87;10.47;;;;;;;;;;4954070;28;20034;-74
2021/09/06 04:58:38;;;;;;;27.93;12.27;;;;;;;;;;4971331;28;20065;-73
2021/09/06 05:01:04;;;;;;;26.87;11.97;;;;;;;;;;4954295;28;20046;-74
2021/09/06 05:03:30;;;;;;;30.97;13.30;;;;;;;;;;4971428;28;20027;-75
2021/09/06 05:05:58;;;;;;;28.23;12.93;;;;;;;;;;4953492;28;20030;-74
2021/09/06 05:08:25;;;;;;;28.97;13.60;;;;;;;;;;4970806;28;20034;-75
2021/09/06 05:10:53;;;;;;;26.20;12.67;;;;;;;;;;4975363;28;20043;-75
2021/09/06 05:13:19;;;;;;;30.17;12.87;;;;;;;;;;4947104;28;20034;-75
2021/09/06 05:15:44;;;;;;;31.33;14.20;;;;;;;;;;4970589;28;20042;-76
2021/09/06 05:18:13;;;;;;;30.85;13.50;;;;;;;;;;4951654;28;20502;-76
2021/09/06 05:20:39;;;;;;;26.35;12.82;;;;;;;;;;4972936;28;20387;-76
2021/09/06 05:23:05;;;;;;;32.43;14.67;;;;;;;;;;4964934;28;20026;-77
2021/09/06 05:25:31;;;;;;;34.80;14.43;;;;;;;;;;4961232;28;20035;-75
2021/09/06 05:27:56;;;;;;;31.50;13.43;;;;;;;;;;4952418;28;20054;-77
2021/09/06 05:30:22;;;;;;;25.98;12.18;;;;;;;;;;4935063;28;20035;-75
2021/09/06 05:32:48;;;;;;;31.33;13.55;;;;;;;;;;4965848;28;20043;-74
2021/09/06 05:35:13;;;;;;;29.30;13.68;;;;;;;;;;4973253;28;20031;-75
2021/09/06 05:37:39;;;;;;;33.38;14.52;;;;;;;;;;4948931;28;20109;-75
2021/09/06 05:40:05;;;;;;;29.83;13.40;;;;;;;;;;4969834;28;20390;-75
2021/09/06 05:42:31;;;;;;;25.88;13.90;;;;;;;;;;4969311;28;20491;-75
2021/09/06 05:44:56;;;;;;;66.25;15.30;;;;;;;;;;4970929;28;20041;-75
2021/09/06 05:47:22;;;;;;;33.10;14.90;;;;;;;;;;4971019;28;20106;-75
2021/09/06 05:49:47;;;;;;;31.60;13.35;;;;;;;;;;4970045;28;20047;-76
2021/09/06 05:52:13;;;;;;;31.58;13.55;;;;;;;;;;4969246;28;20187;-75
2021/09/06 05:54:38;;;;;;;30.80;14.52;;;;;;;;;;4970194;28;20029;-75
2021/09/06 05:57:04;;;;;;;28.55;14.93;;;;;;;;;;4970551;28;20026;-76
2021/09/06 05:59:30;;;;;;;26.67;13.88;;;;;;;;;;4964284;28;20035;-77
2021/09/06 06:01:56;;;;;;;27.90;13.10;;;;;;;;;;4948813;28;20030;-76
2021/09/06 06:04:21;;;;;;;30.73;14.30;;;;;;;;;;4947598;29;20491;-73
2021/09/06 06:06:47;;;;;;;35.55;15.95;;;;;;;;;;4965972;28;20462;-77
2021/09/06 06:09:13;;;;;;;31.42;14.38;;;;;;;;;;4951031;28;20034;-75
2021/09/06 06:11:40;;;;;;;25.25;13.57;;;;;;;;;;4966195;28;20783;-76
2021/09/06 06:14:08;;;;;;;30.92;13.93;;;;;;;;;;4956080;28;20034;-75
2021/09/06 06:16:35;;;;;;;28.13;14.75;;;;;;;;;;4965932;28;20070;-75
2021/09/06 06:19:01;;;;;;;26.30;14.52;;;;;;;;;;4948136;28;20130;-75
2021/09/06 06:21:28;;;;;;;36.95;14.57;;;;;;;;;;4960387;28;20209;-75
2021/09/06 06:23:54;;;;;;;35.70;14.10;;;;;;;;;;4956915;28;20050;-74
2021/09/06 06:26:20;;;;;;;30.83;15.48;;;;;;;;;;4979485;28;20018;-75
2021/09/06 06:28:46;;;;;;;34.40;15.80;;;;;;;;;;4992502;28;20070;-76
2021/09/06 06:31:12;;;;;;;27.33;13.43;;;;;;;;;;4984060;28;20038;-74
2021/09/06 06:33:37;;;;;;;29.88;13.43;;;;;;;;;;4957882;28;20023;-75
2021/09/06 06:36:04;;;;;;;35.47;15.30;;;;;;;;;;4956541;28;20464;-75
2021/09/06 06:38:30;;;;;;;29.60;15.57;;;;;;;;;;4960326;28;20452;-75
2021/09/06 06:40:58;;;;;;;26.30;13.82;;;;;;;;;;4952775;28;20034;-74
2021/09/06 06:43:23;;;;;;;26.67;14.02;;;;;;;;;;4968350;28;20121;-75
2021/09/06 06:45:49;;;;;;;34.28;13.95;;;;;;;;;;4972059;28;20105;-74
2021/09/06 06:48:14;;;;;;;31.27;14.55;;;;;;;;;;4953323;28;20086;-75
2021/09/06 06:50:40;;;;;;;25.58;13.15;;;;;;;;;;4954109;28;20030;-74
2021/09/06 06:53:06;;;;;;;29.45;13.23;;;;;;;;;;4954883;28;20041;-75
2021/09/06 06:55:32;;;;;;;27.88;14.57;;;;;;;;;;4970826;28;20110;-75
2021/09/06 06:57:57;;;;;;;29.42;13.23;;;;;;;;;;4958252;28;20494;-74
2021/09/06 07:00:23;;;;;;;23.25;11.80;;;;;;;;;;4964022;28;20038;-75
2021/09/06 07:02:51;;;;;;;34.33;13.88;;;;;;;;;;4980420;28;20106;-75
2021/09/06 07:05:16;;;;;;;28.38;13.35;;;;;;;;;;4972734;28;20080;-76
2021/09/06 07:07:43;;;;;;;27.98;11.77;;;;;;;;;;4973439;28;20031;-73
2021/09/06 07:10:10;;;;;;;26.98;11.63;;;;;;;;;;4966777;28;20022;-74
2021/09/06 07:12:39;;;;;;;24.65;11.52;;;;;;;;;;4973923;28;20528;-74
2021/09/06 07:15:07;;;;;;;29.92;12.13;;;;;;;;;;4958624;28;20066;-75
2021/09/06 07:17:33;;;;;;;26.17;11.60;;;;;;;;;;4982693;28;20101;-75
2021/09/06 07:19:59;;;;;;;26.17;11.95;;;;;;;;;;4967888;28;20033;-75
2021/09/06 07:22:25;;;;;;;20.05;10.90;;;;;;;;;;4964320;28;20074;-74
2021/09/06 07:24:51;;;;;;;19.98;9.52;;;;;;;;;;4965306;28;20065;-75
2021/09/06 07:27:16;;;;;;;52.72;11.80;;;;;;;;;;4973198;28;20039;-76
2021/09/06 07:29:42;;;;;;;24.98;10.05;;;;;;;;;;4970910;28;20073;-75
2021/09/06 07:32:08;;;;;;;24.35;8.43;;;;;;;;;;4952725;28;20141;-75
2021/09/06 07:34:35;;;;;;;25.40;9.45;;;;;;;;;;4973069;28;20041;-75
2021/09/06 07:37:03;;;;;;;21.15;8.57;;;;;;;;;;4973474;28;20027;-76
2021/09/06 07:39:28;;;;;;;20.98;7.35;;;;;;;;;;4973390;28;20031;-77
2021/09/06 07:41:54;;;;;;;11.48;6.00;;;;;;;;;;4969018;28;20069;-75
2021/09/06 07:44:19;;;;;;;13.10;7.20;;;;;;;;;;4955693;28;20042;-75
2021/09/06 07:46:45;;;;;;;14.75;6.63;;;;;;;;;;4962401;28;20786;-75
2021/09/06 07:49:10;;;;;;;12.85;7.53;;;;;;;;;;4969534;28;20035;-75
2021/09/06 07:51:36;;;;;;;16.85;8.57;;;;;;;;;;4952097;28;20043;-75
2021/09/06 07:54:02;;;;;;;14.25;7.85;;;;;;;;;;4970339;28;20550;-78
2021/09/06 07:56:28;;;;;;;23.30;7.82;;;;;;;;;;4970492;28;20058;-74
2021/09/06 07:58:53;;;;;;;12.88;6.28;;;;;;;;;;4952079;28;20364;-74
2021/09/06 08:01:19;;;;;;;15.90;6.63;;;;;;;;;;4961853;28;20043;-76
2021/09/06 08:03:45;;;;;;;15.73;8.05;;;;;;;;;;4949431;28;20045;-76
2021/09/06 08:06:10;;;;;;;15.82;8.27;;;;;;;;;;4962760;28;20663;-74
2021/09/06 08:08:40;;;;;;;16.88;8.10;;;;;;;;;;4953272;28;20050;-76
2021/09/06 08:11:06;;;;;;;17.67;8.02;;;;;;;;;;4974432;28;20038;-75
2021/09/06 08:13:32;;;;;;;17.00;7.90;;;;;;;;;;4954739;28;20057;-76
2021/09/06 08:15:58;;;;;;;20.63;8.40;;;;;;;;;;4977049;28;20045;-77
2021/09/06 08:18:23;;;;;;;15.45;7.38;;;;;;;;;;4963034;28;20105;-79
2021/09/06 08:20:49;;;;;;;11.68;5.88;;;;;;;;;;4982901;28;20039;-74
2021/09/06 08:23:15;;;;;;;16.73;7.72;;;;;;;;;;4974710;28;20038;-76
2021/09/06 08:25:40;;;;;;;15.40;7.03;;;;;;;;;;4966707;28;20035;-74
2021/09/06 08:28:06;;;;;;;17.92;6.70;;;;;;;;;;4978871;28;20065;-75
2021/09/06 08:30:31;;;;;;;16.77;8.05;;;;;;;;;;4970112;28;20089;-75
2021/09/06 08:32:57;;;;;;;13.15;6.05;;;;;;;;;;4952422;28;20589;-75
2021/09/06 08:35:23;;;;;;;14.57;6.43;;;;;;;;;;4970651;28;20495;-76
2021/09/06 08:37:48;;;;;;;12.45;6.07;;;;;;;;;;4948763;28;20083;-74
2021/09/06 08:40:14;;;;;;;14.35;5.75;;;;;;;;;;4968369;28;20471;-74
2021/09/06 08:42:41;;;;;;;15.80;6.20;;;;;;;;;;4965594;28;20041;-76
2021/09/06 08:45:08;;;;;;;17.85;8.35;;;;;;;;;;4946733;28;20471;-74
2021/09/06 08:47:36;;;;;;;16.55;6.55;;;;;;;;;;4950197;28;20047;-76
2021/09/06 08:50:05;;;;;;;12.77;6.20;;;;;;;;;;4968161;28;20026;-77
2021/09/06 08:52:32;;;;;;;14.20;6.45;;;;;;;;;;4963495;28;20155;-74
2021/09/06 08:54:58;;;;;;;15.02;6.13;;;;;;;;;;4962806;28;20109;-75
2021/09/06 08:57:26;;;;;;;9.77;5.65;;;;;;;;;;4952202;28;20344;-75
2021/09/06 08:59:57;;;;;;;14.70;6.00;;;;;;;;;;4967199;28;20053;-76
2021/09/06 09:02:24;;;;;;;16.25;8.85;;;;;;;;;;4953039;28;20057;-77
2021/09/06 09:05:08;;;;;;;13.25;6.82;;;;;;;;;;4967930;28;20151;-77
2021/09/06 09:07:35;;;;;;;9.55;5.45;;;;;;;;;;4962999;28;20408;-74
2021/09/06 09:10:02;;;;;;;10.30;6.18;;;;;;;;;;4961391;28;20030;-75
2021/09/06 09:12:29;;;;;;;10.80;6.15;;;;;;;;;;4968531;28;20034;-76
2021/09/06 09:14:59;;;;;;;9.07;5.50;;;;;;;;;;4970634;28;20026;-75
2021/09/06 09:17:27;;;;;;;14.35;6.10;;;;;;;;;;4945649;28;20035;-77
2021/09/06 09:19:54;;;;;;;12.60;5.35;;;;;;;;;;4962705;28;20049;-77
2021/09/06 09:22:32;;;;;;;10.85;6.22;;;;;;;;;;4951069;28;20318;-77
2021/09/06 09:24:59;;;;;;;9.93;6.15;;;;;;;;;;4951020;28;20061;-75
2021/09/06 09:27:31;;;;;;;12.45;5.35;;;;;;;;;;4972727;28;20030;-75
2021/09/06 09:29:56;;;;;;;11.27;6.00;;;;;;;;;;4973924;28;20074;-77
2021/09/06 09:32:22;;;;;;;12.57;7.03;;;;;;;;;;4950923;28;20030;-76
2021/09/06 09:34:47;;;;;;;11.07;6.28;;;;;;;;;;4967025;28;20054;-76
2021/09/06 09:37:23;;;;;;;11.55;5.32;;;;;;;;;;4962867;28;20034;-75
2021/09/06 09:39:57;;;;;;;9.25;5.57;;;;;;;;;;4967494;28;20023;-75
2021/09/06 09:42:23;;;;;;;11.85;6.47;;;;;;;;;;4968784;28;20038;-77
2021/09/06 09:45:08;;;;;;;11.98;6.05;;;;;;;;;;4968739;28;20030;-75
2021/09/06 09:47:34;;;;;;;12.82;6.25;;;;;;;;;;4970510;28;20031;-76
2021/09/06 09:49:59;;;;;;;13.68;6.53;;;;;;;;;;4952590;28;20665;-75
2021/09/06 09:52:26;;;;;;;10.95;6.20;;;;;;;;;;4973775;28;20130;-75
2021/09/06 09:54:53;;;;;;;13.27;6.50;;;;;;;;;;4973552;28;20033;-76
2021/09/06 09:57:26;;;;;;;11.63;6.03;;;;;;;;;;4969909;28;20035;-75
2021/09/06 09:59:52;;;;;;;12.63;6.10;;;;;;;;;;4954490;28;20031;-76
2021/09/06 10:02:24;;;;;;;11.95;6.68;;;;;;;;;;4974062;28;20019;-75
2021/09/06 10:04:54;;;;;;;;;;;;;;;;;;4954000;28;20514;-73
2021/09/06 10:07:23;;;;;;;11.25;5.72;;;;;;;;;;4970238;28;19918;-74
2021/09/06 10:09:49;;;;;;;11.57;6.13;;;;;;;;;;4951637;28;20368;-75
2021/09/06 10:12:24;;;;;;;11.35;6.00;;;;;;;;;;4968970;28;20377;-74
2021/09/06 10:14:55;;;;;;;13.63;6.95;;;;;;;;;;4950576;28;20026;-75
2021/09/06 10:17:40;;;;;;;16.67;7.93;;;;;;;;;;4927206;28;20058;-75
2021/09/06 10:20:12;;;;;;;10.43;6.28;;;;;;;;;;4970723;28;20033;-75
2021/09/06 10:22:39;;;;;;;14.98;7.05;;;;;;;;;;4969286;28;20023;-75
2021/09/06 10:25:08;;;;;;;15.93;8.27;;;;;;;;;;4971192;28;20019;-75
2021/09/06 10:27:36;;;;;;;16.55;7.30;;;;;;;;;;4952471;28;20121;-76
2021/09/06 10:30:08;;;;;;;13.88;6.88;;;;;;;;;;4947770;28;20043;-74
2021/09/06 10:32:39;;;;;;;17.85;8.15;;;;;;;;;;4933396;29;20126;-77
2021/09/06 10:35:17;;;;;;;11.88;6.70;;;;;;;;;;4949439;28;20031;-76
2021/09/06 10:37:46;;;;;;;13.02;7.15;;;;;;;;;;4948732;28;20069;-76
2021/09/06 10:40:13;;;;;;;14.48;6.90;;;;;;;;;;4951898;28;20027;-75
2021/09/06 10:42:41;;;;;;;15.82;7.50;;;;;;;;;;4936896;29;20059;-75
2021/09/06 10:45:09;;;;;;;13.45;7.35;;;;;;;;;;4950748;29;20058;-75
2021/09/06 10:47:40;;;;;;;12.15;7.25;;;;;;;;;;4954893;28;20095;-77
2021/09/06 10:50:20;;;;;;;15.23;7.57;;;;;;;;;;4950871;29;20031;-77
2021/09/06 10:52:48;;;;;;;17.27;8.07;;;;;;;;;;4931452;29;20696;-75
2021/09/06 10:55:15;;;;;;;15.85;8.07;;;;;;;;;;4952654;29;20053;-74
2021/09/06 10:57:43;;;;;;;13.07;7.18;;;;;;;;;;4940211;29;20027;-76
2021/09/06 11:00:14;;;;;;;26.27;10.80;;;;;;;;;;4934846;28;20024;-74
2021/09/06 11:02:41;;;;;;;15.82;8.13;;;;;;;;;;4949918;28;20035;-75
2021/09/06 11:05:07;;;;;;;16.65;8.77;;;;;;;;;;4934158;29;20039;-74
2021/09/06 11:07:33;;;;;;;13.43;7.68;;;;;;;;;;4940846;29;20035;-73
2021/09/06 11:10:14;;;;;;;14.95;7.90;;;;;;;;;;4954587;28;20037;-74
2021/09/06 11:13:01;;;;;;;14.60;8.70;;;;;;;;;;4927886;29;20027;-77
2021/09/06 11:15:30;;;;;;;18.15;8.10;;;;;;;;;;4936456;29;20049;-75
2021/09/06 11:18:06;;;;;;;16.02;9.35;;;;;;;;;;4941890;28;20049;-73
2021/09/06 11:20:33;;;;;;;13.93;7.80;;;;;;;;;;4949740;28;20027;-75
2021/09/06 11:23:02;;;;;;;20.23;8.80;;;;;;;;;;4932055;28;20034;-75
2021/09/06 11:25:31;;;;;;;14.63;9.52;;;;;;;;;;4949584;29;20023;-73
2021/09/06 11:28:12;;;;;;;19.17;10.20;;;;;;;;;;4952094;28;20086;-76
2021/09/06 11:30:45;;;;;;;15.63;8.88;;;;;;;;;;4969636;28;20057;-76
2021/09/06 11:33:12;;;;;;;17.23;8.40;;;;;;;;;;4951784;28;20337;-76
2021/09/06 11:35:41;;;;;;;18.02;8.73;;;;;;;;;;4952223;28;20035;-77
2021/09/06 11:38:10;;;;;;;17.35;9.15;;;;;;;;;;4951695;28;20456;-75
2021/09/06 11:40:39;;;;;;;16.30;9.27;;;;;;;;;;4935948;28;20074;-76
2021/09/06 11:43:06;;;;;;;16.60;9.18;;;;;;;;;;4968988;28;20095;-77
2021/09/06 11:45:33;;;;;;;18.25;9.45;;;;;;;;;;4968983;28;20446;-74
2021/09/06 11:48:05;;;;;;;18.38;9.50;;;;;;;;;;4970015;28;20364;-76
2021/09/06 11:50:38;;;;;;;19.35;8.50;;;;;;;;;;4965039;28;20101;-75
2021/09/06 11:53:11;;;;;;;17.92;9.45;;;;;;;;;;4952330;28;20038;-74
2021/09/06 11:55:48;;;;;;;15.73;8.88;;;;;;;;;;4948613;28;20031;-76
2021/09/06 11:58:14;;;;;;;16.00;8.95;;;;;;;;;;4975661;28;20053;-75
2021/09/06 12:00:41;;;;;;;15.10;9.30;;;;;;;;;;4951195;28;20118;-75
2021/09/06 12:03:08;;;;;;;15.05;8.85;;;;;;;;;;4974989;28;20027;-75
2021/09/06 12:05:42;;;;;;;12.95;8.77;;;;;;;;;;4970533;28;20042;-74
2021/09/06 12:08:13;;;;;;;14.77;8.80;;;;;;;;;;4952528;28;20039;-75
2021/09/06 12:10:42;;;;;;;12.45;8.60;;;;;;;;;;4966550;28;20035;-75
2021/09/06 12:13:17;;;;;;;17.45;9.00;;;;;;;;;;4973784;28;20058;-75
2021/09/06 12:15:57;;;;;;;16.52;9.93;;;;;;;;;;4968115;28;20035;-76
2021/09/06 12:18:35;;;;;;;15.50;9.52;;;;;;;;;;4961456;28;20599;-75
2021/09/06 12:21:11;;;;;;;15.75;8.27;;;;;;;;;;4967540;28;20370;-75
2021/09/06 12:23:51;;;;;;;14.65;9.38;;;;;;;;;;4947638;28;20031;-76
2021/09/06 12:26:18;;;;;;;13.82;8.88;;;;;;;;;;4965049;28;20110;-75
2021/09/06 12:28:52;;;;;;;16.23;9.30;;;;;;;;;;4958313;28;20435;-77
2021/09/06 12:31:19;;;;;;;17.23;9.80;;;;;;;;;;4944569;28;20035;-76
2021/09/06 12:33:48;;;;;;;23.80;10.98;;;;;;;;;;4952305;28;20038;-74
2021/09/06 12:36:15;;;;;;;14.23;9.00;;;;;;;;;;4969686;28;20121;-75
2021/09/06 12:38:41;;;;;;;13.60;8.13;;;;;;;;;;4978736;28;20603;-78
2021/09/06 12:41:06;;;;;;;15.95;8.63;;;;;;;;;;4965743;28;20117;-76
2021/09/06 12:43:32;;;;;;;17.90;9.00;;;;;;;;;;4962280;28;20127;-74
2021/09/06 12:45:58;;;;;;;18.90;9.05;;;;;;;;;;4972213;28;20359;-75
2021/09/06 12:48:23;;;;;;;18.60;9.50;;;;;;;;;;4977464;28;20035;-76
2021/09/06 12:50:49;;;;;;;15.43;8.95;;;;;;;;;;4969575;28;20046;-75
2021/09/06 12:53:16;;;;;;;19.58;10.93;;;;;;;;;;4969201;28;20501;-74
2021/09/06 12:55:45;;;;;;;12.40;8.50;;;;;;;;;;4954469;28;20583;-76
2021/09/06 12:58:11;;;;;;;21.58;10.90;;;;;;;;;;4964594;28;20390;-76
2021/09/06 13:00:38;;;;;;;18.17;9.60;;;;;;;;;;4968860;28;20031;-78
2021/09/06 13:03:04;;;;;;;12.13;8.15;;;;;;;;;;4955295;28;20030;-75
2021/09/06 13:05:30;;;;;;;13.73;8.68;;;;;;;;;;4968903;28;20038;-73
2021/09/06 13:07:58;;;;;;;14.32;9.02;;;;;;;;;;4936031;29;20103;-77
2021/09/06 13:10:30;;;;;;;17.50;8.57;;;;;;;;;;4943398;28;20031;-77
2021/09/06 13:12:56;;;;;;;21.27;10.27;;;;;;;;;;4972670;28;20046;-73
2021/09/06 13:15:22;;;;;;;16.55;8.70;;;;;;;;;;4964763;28;20058;-75
2021/09/06 13:17:47;;;;;;;16.33;8.77;;;;;;;;;;4972753;28;20613;-77
2021/09/06 13:20:13;;;;;;;13.38;8.68;;;;;;;;;;4959674;28;20033;-75
2021/09/06 13:22:42;;;;;;;11.57;7.78;;;;;;;;;;4955168;28;20038;-76
2021/09/06 13:25:09;;;;;;;17.80;11.18;;;;;;;;;;4969790;28;20026;-76
2021/09/06 13:27:35;;;;;;;21.52;9.02;;;;;;;;;;4952187;28;20130;-74
2021/09/06 13:30:01;;;;;;;16.83;8.80;;;;;;;;;;4935237;29;20617;-74
2021/09/06 13:32:27;;;;;;;15.73;10.25;;;;;;;;;;4946704;28;20158;-76
2021/09/06 13:34:53;;;;;;;14.82;9.15;;;;;;;;;;4951930;28;20029;-77
2021/09/06 13:37:20;;;;;;;17.52;9.15;;;;;;;;;;4951091;28;20344;-75
2021/09/06 13:39:46;;;;;;;17.30;9.10;;;;;;;;;;4941572;28;20022;-74
2021/09/06 13:42:11;;;;;;;18.08;9.90;;;;;;;;;;4951401;28;20343;-78
2021/09/06 13:44:37;;;;;;;18.88;9.15;;;;;;;;;;4931144;29;20043;-75
2021/09/06 13:47:04;;;;;;;19.02;8.32;;;;;;;;;;4952610;28;20440;-76
2021/09/06 13:49:30;;;;;;;15.63;9.25;;;;;;;;;;4953988;28;20022;-73
2021/09/06 13:51:56;;;;;;;15.15;9.07;;;;;;;;;;4916595;28;20052;-77
2021/09/06 13:54:22;;;;;;;17.23;8.88;;;;;;;;;;4952246;28;20654;-76
2021/09/06 13:56:48;;;;;;;14.80;8.73;;;;;;;;;;4949884;29;20058;-75
2021/09/06 13:59:13;;;;;;;14.23;8.93;;;;;;;;;;4952748;28;20082;-76
2021/09/06 14:01:39;;;;;;;17.75;8.98;;;;;;;;;;4934763;28;20125;-74
2021/09/06 14:04:05;;;;;;;38.22;10.70;;;;;;;;;;4953601;28;20134;-75
2021/09/06 14:06:35;;;;;;;18.02;8.75;;;;;;;;;;4936083;28;20038;-76
2021/09/06 14:09:01;;;;;;;15.73;9.68;;;;;;;;;;4943110;28;20134;-74
2021/09/06 14:11:26;;;;;;;14.38;8.23;;;;;;;;;;4958889;28;20150;-76
2021/09/06 14:13:52;;;;;;;19.90;9.35;;;;;;;;;;4962938;28;20201;-75
2021/09/06 14:16:18;;;;;;;19.38;9.30;;;;;;;;;;4951412;28;20771;-76
2021/09/06 14:18:43;;;;;;;15.57;8.93;;;;;;;;;;4951915;28;20019;-76
2021/09/06 14:21:09;;;;;;;18.33;9.05;;;;;;;;;;4933466;29;20349;-76
2021/09/06 14:23:35;;;;;;;17.77;9.10;;;;;;;;;;4933811;29;20035;-77